CheckWX is a tool to help pilots better visualize weather data.  It is not intended as a substitute for an official pre-flight weather briefing.

17:59:59 UTC

EIDW TAF
Dublin Airport
Dublin, Ireland
TAF EIDW 251700Z 2518/2618 28008KT 9999 FEW015 SCT025 TEMPO 2600/2604 25006KT TEMPO 2604/2608 4000 BR BKN007 PROB30 TEMPO 2604/2607 0700 FG BKN002 PROB40 TEMPO 2608/2610 BKN007 BECMG 2609/2611 25008KT BECMG 2612/2614 14007KT

Aug-25@
18:00 UTC

Aug-25 @ 18:00 UTC

Aug-26@
09:00 UTC

Aug-26 @ 09:00 UTC

TAF EIDW 251700Z 2518/2618 28008KT 9999 FEW015 SCT025
Wind
  • 280° at 8 KTS
Cloud Levels
  • Few at 1,500' AGL
  • Scattered at 2,500' AGL

Aug-26@
00:00 UTC

Aug-26 @ 00:00 UTC

Aug-26@
04:00 UTC

Aug-26 @ 04:00 UTC

TEMPO 2600/2604 25006KT

Temporary

Temporary Changes expected for less than half the time period

Wind
  • 250° at 6 KTS

Aug-26@
04:00 UTC

Aug-26 @ 04:00 UTC

Aug-26@
07:00 UTC

Aug-26 @ 07:00 UTC

PROB30 TEMPO 2604/2607 0700 FG BKN002

Temporary - 30% Likelihood

Temporary - 30% Likelihood during this time.

Conditions
Fog
Cloud Levels
  • Broken at 200' AGL

Aug-26@
04:00 UTC

Aug-26 @ 04:00 UTC

Aug-26@
08:00 UTC

Aug-26 @ 08:00 UTC

TEMPO 2604/2608 4000 BR BKN007

Temporary

Temporary Changes expected for less than half the time period

Conditions
Mist
Cloud Levels
  • Broken at 700' AGL

Aug-26@
08:00 UTC

Aug-26 @ 08:00 UTC

Aug-26@
10:00 UTC

Aug-26 @ 10:00 UTC

PROB40 TEMPO 2608/2610 BKN007

Temporary - 40% Likelihood

Temporary - 40% Likelihood during this time.

Cloud Levels
  • Broken at 700' AGL

Aug-26@
09:00 UTC

Aug-26 @ 09:00 UTC

Aug-26@
12:00 UTC

Aug-26 @ 12:00 UTC

BECMG 2609/2611 25008KT

Becoming

Becoming Conditions expected by Mon, Aug 26, 2019 @ 11:00 UTC

Wind
  • 250° at 8 KTS
Cloud Levels
  • Few at 1,500' AGL
  • Scattered at 2,500' AGL

Aug-26@
12:00 UTC

Aug-26 @ 12:00 UTC

Aug-26@
18:00 UTC

Aug-26 @ 18:00 UTC

BECMG 2612/2614 14007KT

Becoming

Becoming Conditions expected by Mon, Aug 26, 2019 @ 14:00 UTC

Wind
  • 140° at 7 KTS
Cloud Levels
  • Few at 1,500' AGL
  • Scattered at 2,500' AGL